Frazier Park, CA (93225)

8:53 PM PDT on May 26, 2017 (GMT -0700)
Pinion Pines | | Change Station

Elev 5515 ft 34.83 °N, 119.04 °W | Updated 14 seconds ago

Partly Cloudy
Partly Cloudy
47.3 °F
Feels Like 47 °F
N
0.2
Wind Variable Wind from WSW
Gusts 2.5 mph

Today
High -- | Low -- °F
--% Chance of Precip.
Yesterday
High -- | Low -- °F
Precip. -- in
Pressure 29.96 in
Visibility 10.0 miles
Clouds Few 700 ft
Few 1300 ft
Windchill 47 °F
Dew Point 45 °F
Humidity 93%
Rainfall 0.00 in
Snow Depth Not available.
5:45 AM 8:00 PM
Waxing Crescent, 3% visible
METAR KSDB 270253Z AUTO 22007KT 10SM FEW007 FEW013 10/08 A3002 RMK AO2 SLP143 T01000078 51004
Pressure 29.96 in
Visibility 10.0 miles
Clouds Few 700 ft
Few 1300 ft
Windchill 47 °F
Dew Point 45 °F
Humidity 93%
Rainfall 0.00 in
Snow Depth Not available.
5:45 AM 8:00 PM
Waxing Crescent, 3% visible
METAR KSDB 270253Z AUTO 22007KT 10SM FEW007 FEW013 10/08 A3002 RMK AO2 SLP143 T01000078 51004

Get Severe Weather Alerts

Thanks for signing up!

Be on the lookout for a verification email in your inbox.

You'll start receiving the daily forecast at 6 AM.

×

10-Day Weather Forecast

Almanac

Astronomy

May. 26, 2017 Rise Set
Actual Time
Civil Twilight
Nautical Twilight
Astronomical Twilight
Moon
Length of Visible Light
Length of Day
Tomorrow will be .
, % of the Moon is Illuminated

Today's Extremes

State Highs State Lows

Community

WunderPhotos

Category 6

Welcome to Category 6. This is the collective home for Weather Underground's featured writeups by Dr. Jeff Masters (right), Bob Henson (left), Chris Burt, and other regular contributors.

Nearby

Air Quality

  Air Quality AQ Index Pollutant
Not available.

Snow Depth

Station Depth Elevation

Earthquake Activity

City Distance Mag. Time & Date
Minimum magnitude displayed is 2.5.

Coastal Water Temperatures

Place Temperature

Stations

Nearby Weather Stations

Station Location Temp. Windchill Dew Point Humidity Wind Precip. Elev Updated Type
                   

Watches & Warnings

There are currently no watches in effect.